createdAt,value
2018-08-20T00:00:36.577Z,23.00
2018-08-20T00:03:04.773Z,23.00
2018-08-20T00:05:36.326Z,23.00
2018-08-20T00:08:04.813Z,23.00
2018-08-20T00:10:33.017Z,23.00
2018-08-20T00:13:01.837Z,23.00
2018-08-20T00:15:30.313Z,23.00
2018-08-20T00:17:59.114Z,22.90
2018-08-20T00:20:27.585Z,23.00
2018-08-20T00:22:56.717Z,23.00
2018-08-20T00:25:25.214Z,22.90
2018-08-20T00:27:54.021Z,22.90
2018-08-20T00:30:22.502Z,22.80
2018-08-20T00:32:50.982Z,22.70
2018-08-20T00:35:20.246Z,22.70
2018-08-20T00:37:50.079Z,22.70
2018-08-20T00:40:19.666Z,22.70
2018-08-20T00:42:48.612Z,22.70
2018-08-20T00:45:17.070Z,22.70
2018-08-20T00:47:46.747Z,22.70
2018-08-20T00:50:15.524Z,22.60
2018-08-20T00:52:44.646Z,22.50
2018-08-20T00:55:13.117Z,22.50
2018-08-20T00:57:42.013Z,22.50
2018-08-20T01:00:11.222Z,22.50
2018-08-20T01:02:39.682Z,22.50
2018-08-20T01:05:08.333Z,22.50
2018-08-20T01:07:36.867Z,22.50
2018-08-20T01:10:07.033Z,22.50
2018-08-20T01:12:35.998Z,22.50
2018-08-20T01:15:05.189Z,22.40
2018-08-20T01:17:33.978Z,22.40
2018-08-20T01:20:02.514Z,22.40
2018-08-20T01:22:31.673Z,22.30
2018-08-20T01:25:00.155Z,22.30
2018-08-20T01:27:29.949Z,22.30
2018-08-20T01:29:58.813Z,22.20
2018-08-20T01:32:27.634Z,22.20
2018-08-20T01:35:06.258Z,22.20
2018-08-20T01:37:34.722Z,22.20
2018-08-20T01:40:03.194Z,22.10
2018-08-20T01:42:31.707Z,22.10
2018-08-20T01:45:01.206Z,22.00
2018-08-20T01:47:29.705Z,22.00
2018-08-20T01:49:58.202Z,22.00
2018-08-20T01:52:26.672Z,22.00
2018-08-20T01:54:55.510Z,21.90
2018-08-20T01:57:25.585Z,21.90
2018-08-20T01:59:54.726Z,21.80
2018-08-20T02:02:23.181Z,21.80
2018-08-20T02:04:51.985Z,21.70
2018-08-20T02:07:20.461Z,21.80
2018-08-20T02:09:49.634Z,21.70
2018-08-20T02:12:18.456Z,21.70
2018-08-20T02:14:47.723Z,21.70
2018-08-20T02:17:16.198Z,21.60
2018-08-20T02:19:44.692Z,21.60
2018-08-20T02:22:13.148Z,21.60
2018-08-20T02:24:41.957Z,21.60
2018-08-20T02:27:10.777Z,21.50
2018-08-20T02:29:39.563Z,21.50
2018-08-20T02:32:08.763Z,21.50
2018-08-20T02:34:37.241Z,21.40
2018-08-20T02:37:05.977Z,21.40
2018-08-20T02:39:34.425Z,21.40
2018-08-20T02:42:02.897Z,21.40
2018-08-20T02:44:31.402Z,21.40
2018-08-20T02:46:59.866Z,21.40
2018-08-20T02:49:28.681Z,21.40
2018-08-20T02:51:57.146Z,21.40
2018-08-20T02:54:26.330Z,21.30
2018-08-20T02:56:54.827Z,21.30
2018-08-20T02:59:23.281Z,21.30
2018-08-20T03:01:52.645Z,21.30
2018-08-20T03:04:21.499Z,21.20
2018-08-20T03:06:50.462Z,21.20
2018-08-20T03:09:20.991Z,21.20
2018-08-20T03:11:49.506Z,21.20
2018-08-20T03:14:18.301Z,21.10
2018-08-20T03:16:47.085Z,21.10
2018-08-20T03:19:15.962Z,21.10
2018-08-20T03:21:44.454Z,21.10
2018-08-20T03:24:15.165Z,21.10
2018-08-20T03:26:43.892Z,21.00
2018-08-20T03:29:13.058Z,21.00
2018-08-20T03:31:41.859Z,21.00
2018-08-20T03:34:11.057Z,20.90
2018-08-20T03:36:39.541Z,20.90
2018-08-20T03:39:08.505Z,20.90
2018-08-20T03:41:37.017Z,20.90
2018-08-20T03:44:05.505Z,20.90
2018-08-20T03:46:34.669Z,20.80
2018-08-20T03:49:03.178Z,20.70
2018-08-20T03:51:31.661Z,20.80
2018-08-20T03:54:00.129Z,20.70
2018-08-20T03:56:28.935Z,20.70
2018-08-20T03:58:57.402Z,20.70
2018-08-20T04:01:26.590Z,20.70
2018-08-20T04:03:55.397Z,20.70
2018-08-20T04:06:24.106Z,20.60
2018-08-20T04:08:52.590Z,20.60
2018-08-20T04:11:21.385Z,20.60
2018-08-20T04:13:50.226Z,20.60
2018-08-20T04:16:19.003Z,20.60
2018-08-20T04:18:47.503Z,20.60
2018-08-20T04:21:16.811Z,20.60
2018-08-20T04:23:45.302Z,20.60
2018-08-20T04:26:13.807Z,20.50
2018-08-20T04:28:42.279Z,20.50
2018-08-20T04:31:11.063Z,20.50
2018-08-20T04:33:39.546Z,20.50
2018-08-20T04:36:08.688Z,20.60
2018-08-20T04:38:37.169Z,20.60
2018-08-20T04:41:05.973Z,20.50
2018-08-20T04:43:34.405Z,20.50
2018-08-20T04:46:02.894Z,20.50
2018-08-20T04:48:31.455Z,20.50
2018-08-20T04:51:00.070Z,20.50
2018-08-20T04:53:28.577Z,20.60
2018-08-20T04:55:57.373Z,20.60
2018-08-20T04:58:26.201Z,20.60
2018-08-20T05:00:54.889Z,20.60
2018-08-20T05:09:55.505Z,20.60
2018-08-20T05:12:24.147Z,20.70
2018-08-20T05:14:52.662Z,20.80
2018-08-20T05:17:21.149Z,20.80
2018-08-20T05:19:49.611Z,20.80
2018-08-20T05:22:18.120Z,20.90
2018-08-20T05:24:46.958Z,20.90
2018-08-20T05:27:15.813Z,20.90
2018-08-20T05:29:44.334Z,20.90
2018-08-20T05:32:13.461Z,21.00
2018-08-20T05:34:41.950Z,21.00
2018-08-20T05:37:10.479Z,21.00
2018-08-20T05:39:38.959Z,21.10
2018-08-20T05:42:07.768Z,21.10
2018-08-20T05:44:36.264Z,21.20
2018-08-20T05:47:04.745Z,21.30
2018-08-20T05:49:34.879Z,21.40
2018-08-20T05:52:03.497Z,21.40
2018-08-20T05:54:32.278Z,21.50
2018-08-20T05:57:00.730Z,21.50
2018-08-20T05:59:29.554Z,21.60
2018-08-20T06:01:58.053Z,21.70
2018-08-20T06:04:26.865Z,21.70
2018-08-20T06:06:56.261Z,21.80
2018-08-20T06:09:27.677Z,21.90
2018-08-20T06:11:56.526Z,21.90
2018-08-20T06:14:25.359Z,22.00
2018-08-20T06:16:53.942Z,22.00
2018-08-20T06:19:22.528Z,22.00
2018-08-20T06:21:51.694Z,22.10
2018-08-20T06:24:21.154Z,22.30
2018-08-20T06:26:50.267Z,22.40
2018-08-20T06:29:19.101Z,22.50
2018-08-20T06:31:47.893Z,22.70
2018-08-20T06:34:16.699Z,22.70
2018-08-20T06:36:45.841Z,22.70
2018-08-20T06:39:15.454Z,22.90
2018-08-20T06:41:43.920Z,23.10
2018-08-20T06:44:12.385Z,23.20
2018-08-20T06:46:40.837Z,23.20
2018-08-20T06:49:10.278Z,23.30
2018-08-20T06:51:39.296Z,23.40
2018-08-20T06:54:09.344Z,23.40
2018-08-20T06:56:38.125Z,23.50
2018-08-20T06:59:06.905Z,23.60
2018-08-20T07:01:35.970Z,23.70
2018-08-20T07:04:04.434Z,23.70
2018-08-20T07:06:33.665Z,23.70
2018-08-20T07:09:02.562Z,23.80
2018-08-20T07:11:31.040Z,23.90
2018-08-20T07:13:59.821Z,24.00
2018-08-20T07:16:28.310Z,24.10
2018-08-20T07:18:57.154Z,24.10
2018-08-20T07:21:25.948Z,24.20
2018-08-20T07:23:54.499Z,24.30
2018-08-20T07:26:23.938Z,24.30
2018-08-20T07:28:52.457Z,24.40
2018-08-20T07:31:21.274Z,24.40
2018-08-20T07:33:49.453Z,24.60
2018-08-20T07:36:18.297Z,24.60
2018-08-20T07:38:46.774Z,24.70
2018-08-20T07:41:15.325Z,24.80
2018-08-20T07:43:43.723Z,24.90
2018-08-20T07:46:12.276Z,25.00
2018-08-20T07:48:40.767Z,25.10
2018-08-20T07:51:09.621Z,25.10
2018-08-20T07:53:38.469Z,25.30
2018-08-20T07:56:06.757Z,25.30
2018-08-20T07:58:35.332Z,25.40
2018-08-20T08:01:03.869Z,25.50
2018-08-20T08:03:32.953Z,25.70
2018-08-20T08:06:03.754Z,25.80
2018-08-20T08:08:32.277Z,25.90
2018-08-20T08:11:01.272Z,25.90
2018-08-20T08:13:29.478Z,25.90
2018-08-20T08:15:58.393Z,26.10
2018-08-20T08:18:26.577Z,26.00
2018-08-20T08:20:54.774Z,26.10
2018-08-20T08:23:23.638Z,26.20
2018-08-20T08:25:52.142Z,26.30
2018-08-20T08:28:20.676Z,26.40
2018-08-20T08:30:49.508Z,26.50
2018-08-20T08:33:18.032Z,26.40
2018-08-20T08:35:46.213Z,26.30
2018-08-20T08:38:14.718Z,26.30
2018-08-20T08:40:43.230Z,26.50
2018-08-20T08:43:11.404Z,26.60
2018-08-20T08:45:39.932Z,26.80
2018-08-20T08:48:08.105Z,26.90
2018-08-20T08:50:36.271Z,27.10
2018-08-20T08:53:04.541Z,26.90
2018-08-20T08:55:32.708Z,26.90
2018-08-20T08:58:00.896Z,27.10
2018-08-20T09:00:29.185Z,27.20
2018-08-20T09:02:57.541Z,27.30
2018-08-20T09:05:25.753Z,27.50
2018-08-20T09:07:54.297Z,27.40
2018-08-20T09:10:22.798Z,27.40
2018-08-20T09:12:51.538Z,27.60
2018-08-20T09:15:19.737Z,27.90
2018-08-20T09:17:47.946Z,28.10
2018-08-20T09:20:17.824Z,28.20
2018-08-20T09:22:46.369Z,28.50
2018-08-20T09:25:15.405Z,28.60
2018-08-20T09:27:44.601Z,28.70
2018-08-20T09:30:16.045Z,28.70
2018-08-20T09:32:45.763Z,28.80
2018-08-20T09:35:14.289Z,28.80
2018-08-20T09:37:42.895Z,28.90
2018-08-20T09:40:11.514Z,29.10
2018-08-20T09:42:40.863Z,29.00
2018-08-20T09:45:09.189Z,29.20
2018-08-20T09:47:38.830Z,29.30
2018-08-20T09:50:08.574Z,29.40
2018-08-20T09:52:36.753Z,29.50
2018-08-20T09:55:05.410Z,29.50
2018-08-20T09:57:34.257Z,29.50
2018-08-20T10:00:02.908Z,29.50
2018-08-20T10:02:31.794Z,29.30
2018-08-20T10:04:59.988Z,29.40
2018-08-20T10:07:28.584Z,29.50
2018-08-20T10:09:57.894Z,29.70
2018-08-20T10:12:26.753Z,29.60
2018-08-20T10:14:55.007Z,29.60
2018-08-20T10:17:23.807Z,29.60
2018-08-20T10:19:52.331Z,29.70
2018-08-20T10:22:20.653Z,29.70
2018-08-20T10:24:49.053Z,29.80
2018-08-20T10:27:18.366Z,29.70
2018-08-20T10:29:46.555Z,29.80
2018-08-20T10:32:14.779Z,29.90
2018-08-20T10:34:42.973Z,29.90
2018-08-20T10:37:11.397Z,29.90
2018-08-20T10:39:40.008Z,30.00
2018-08-20T10:42:08.181Z,30.00
2018-08-20T10:44:41.684Z,30.10
2018-08-20T10:47:09.864Z,30.20
2018-08-20T10:49:38.729Z,30.20
2018-08-20T10:52:07.342Z,30.30
2018-08-20T10:54:35.567Z,30.30
2018-08-20T10:57:03.744Z,30.40
2018-08-20T10:59:32.824Z,30.50
2018-08-20T11:02:01.689Z,30.50
2018-08-20T11:04:30.787Z,30.30
2018-08-20T11:06:59.316Z,30.30
2018-08-20T11:09:28.165Z,30.30
2018-08-20T11:11:56.709Z,30.30
2018-08-20T11:14:25.229Z,30.30
2018-08-20T11:16:53.824Z,30.40
2018-08-20T11:19:21.999Z,30.50
2018-08-20T11:21:50.191Z,30.80
2018-08-20T11:24:18.728Z,30.90
2018-08-20T11:26:47.206Z,31.00
2018-08-20T11:29:15.749Z,31.10
2018-08-20T11:31:44.601Z,31.10
2018-08-20T11:34:13.458Z,31.10
2018-08-20T11:36:42.108Z,30.80
2018-08-20T11:39:11.174Z,30.90
2018-08-20T11:41:39.664Z,30.90
2018-08-20T11:44:08.208Z,31.00
2018-08-20T11:46:37.257Z,31.10
2018-08-20T11:49:05.482Z,31.00
2018-08-20T11:51:34.666Z,31.10
2018-08-20T11:54:03.882Z,31.00
2018-08-20T11:56:32.054Z,30.80
2018-08-20T11:59:00.868Z,30.70
2018-08-20T12:01:29.598Z,30.30
2018-08-20T12:03:57.799Z,30.40
2018-08-20T12:06:26.920Z,30.50
2018-08-20T12:08:55.130Z,30.50
2018-08-20T12:11:23.662Z,30.40
2018-08-20T12:13:51.850Z,30.40
2018-08-20T12:16:20.406Z,30.30
2018-08-20T12:18:48.948Z,30.10
2018-08-20T12:21:17.468Z,30.10
2018-08-20T12:23:50.248Z,30.20
2018-08-20T12:26:18.787Z,30.00
2018-08-20T12:28:46.962Z,29.90
2018-08-20T12:31:15.177Z,30.00
2018-08-20T12:33:44.451Z,30.00
2018-08-20T12:36:12.985Z,29.80
2018-08-20T12:38:41.177Z,29.70
2018-08-20T12:41:10.361Z,29.70
2018-08-20T12:43:38.878Z,29.70
2018-08-20T12:46:07.438Z,29.90
2018-08-20T12:48:36.501Z,29.90
2018-08-20T12:51:05.022Z,29.70
2018-08-20T12:53:33.900Z,29.60
2018-08-20T12:56:02.724Z,29.60
2018-08-20T13:01:33.545Z,29.30
2018-08-20T13:04:02.714Z,29.20
2018-08-20T13:06:31.890Z,29.20
2018-08-20T13:09:01.472Z,29.00
2018-08-20T13:11:30.856Z,29.00
2018-08-20T13:13:59.045Z,28.80
2018-08-20T13:16:27.220Z,29.00
2018-08-20T13:18:55.784Z,29.20
2018-08-20T13:21:24.347Z,29.40
2018-08-20T13:23:52.529Z,29.30
2018-08-20T13:26:22.226Z,29.40
2018-08-20T13:28:51.073Z,29.30
2018-08-20T13:31:21.222Z,29.20
2018-08-20T13:33:50.106Z,29.20
2018-08-20T13:36:18.301Z,29.20
2018-08-20T13:38:46.854Z,29.30
2018-08-20T13:41:15.070Z,29.40
2018-08-20T13:43:53.088Z,29.60
2018-08-20T13:46:21.765Z,29.60
2018-08-20T13:48:50.560Z,29.40
2018-08-20T13:51:20.047Z,29.50
2018-08-20T13:53:48.994Z,29.50
2018-08-20T13:56:17.564Z,29.50
2018-08-20T13:58:46.096Z,29.50
2018-08-20T14:01:14.961Z,29.80
2018-08-20T14:03:43.731Z,29.90
2018-08-20T14:06:12.758Z,30.00
2018-08-20T14:08:40.974Z,29.90
2018-08-20T14:11:09.492Z,29.80
2018-08-20T14:13:38.008Z,29.80
2018-08-20T14:16:06.186Z,29.80
2018-08-20T14:18:34.369Z,29.60
2018-08-20T14:21:06.215Z,29.50
2018-08-20T14:23:34.525Z,29.40
2018-08-20T14:26:03.427Z,29.30
2018-08-20T14:28:32.018Z,29.10
2018-08-20T14:31:00.290Z,29.30
2018-08-20T14:33:29.133Z,29.40
2018-08-20T14:37:21.822Z,29.40
2018-08-20T14:39:53.273Z,29.30
2018-08-20T14:42:21.456Z,29.20
2018-08-20T14:44:50.169Z,29.00
2018-08-20T14:47:18.721Z,28.90
2018-08-20T14:49:46.898Z,28.90
2018-08-20T14:52:16.146Z,28.80
2018-08-20T14:54:48.469Z,28.60
2018-08-20T14:57:16.682Z,28.60
2018-08-20T14:59:45.638Z,28.50
2018-08-20T15:02:15.533Z,28.50
2018-08-20T15:04:44.711Z,28.60
2018-08-20T15:07:13.769Z,28.70
2018-08-20T15:09:42.682Z,28.80
2018-08-20T15:12:12.117Z,28.80
2018-08-20T15:14:48.454Z,28.80
2018-08-20T15:17:17.237Z,28.80
2018-08-20T15:19:46.011Z,28.70
2018-08-20T15:22:15.906Z,28.60
2018-08-20T15:27:38.289Z,28.40
2018-08-20T15:33:10.476Z,28.30
2018-08-20T15:35:47.688Z,28.30
2018-08-20T15:38:16.869Z,28.20
2018-08-20T15:40:45.072Z,28.00
2018-08-20T15:43:15.697Z,27.80
2018-08-20T15:45:44.225Z,27.80
2018-08-20T15:48:12.407Z,27.70
2018-08-20T15:50:40.674Z,27.60
2018-08-20T15:53:09.136Z,27.60
2018-08-20T15:55:37.498Z,27.60
2018-08-20T15:58:05.839Z,27.60
2018-08-20T16:00:34.039Z,27.50
2018-08-20T16:03:02.553Z,27.40
2018-08-20T16:05:31.433Z,27.30
2018-08-20T16:08:02.461Z,27.30
2018-08-20T16:10:31.674Z,27.30
2018-08-20T16:13:00.250Z,27.30
2018-08-20T16:15:28.650Z,27.10
2018-08-20T16:17:57.644Z,27.00
2018-08-20T16:20:25.887Z,26.90
2018-08-20T16:22:54.121Z,27.00
2018-08-20T16:25:22.339Z,26.90
2018-08-20T16:27:50.601Z,26.90
2018-08-20T16:30:19.192Z,26.90
2018-08-20T16:32:47.428Z,26.90
2018-08-20T16:35:16.322Z,26.70
2018-08-20T16:37:44.650Z,26.70
2018-08-20T16:40:13.498Z,26.70
2018-08-20T16:42:41.706Z,26.70
2018-08-20T16:45:10.758Z,26.60
2018-08-20T16:47:39.208Z,26.50
2018-08-20T16:50:09.129Z,26.50
2018-08-20T16:52:37.659Z,26.60
2018-08-20T16:55:06.376Z,26.60
2018-08-20T16:57:34.574Z,26.50
2018-08-20T17:00:02.871Z,26.50
2018-08-20T17:02:31.409Z,26.50
2018-08-20T17:04:59.934Z,26.40
2018-08-20T17:07:28.129Z,26.30
2018-08-20T17:09:56.642Z,26.40
2018-08-20T17:12:25.238Z,26.40
2018-08-20T17:14:54.453Z,26.30
2018-08-20T17:17:23.090Z,26.20
2018-08-20T17:19:52.709Z,26.30
2018-08-20T17:22:21.214Z,26.20
2018-08-20T17:24:53.966Z,26.20
2018-08-20T17:27:23.198Z,26.20
2018-08-20T17:29:53.803Z,26.10
2018-08-20T17:32:22.104Z,26.00
2018-08-20T17:34:51.023Z,26.00
2018-08-20T17:37:19.553Z,26.00
2018-08-20T17:40:05.830Z,25.90
2018-08-20T17:45:39.350Z,25.90
2018-08-20T17:48:32.685Z,25.80
2018-08-20T17:51:01.387Z,25.80
2018-08-20T17:53:41.758Z,25.80
2018-08-20T17:56:15.825Z,25.70
2018-08-20T17:58:44.256Z,25.60
2018-08-20T18:06:13.523Z,25.60
2018-08-20T18:08:43.545Z,25.50
2018-08-20T18:11:11.981Z,25.50
2018-08-20T18:13:46.633Z,25.30
2018-08-20T18:16:19.707Z,25.30
2018-08-20T18:18:51.266Z,25.30
2018-08-20T18:21:20.219Z,25.20
2018-08-20T18:23:50.066Z,25.30
2018-08-20T18:26:18.740Z,25.20
2018-08-20T18:28:52.769Z,25.10
2018-08-20T18:31:22.919Z,25.00
2018-08-20T18:33:51.893Z,25.10
2018-08-20T18:36:23.342Z,25.10
2018-08-20T18:38:57.945Z,25.00
2018-08-20T18:41:36.790Z,25.00
2018-08-20T18:44:05.591Z,25.00
2018-08-20T18:46:34.162Z,25.00
2018-08-20T18:49:02.762Z,25.00
2018-08-20T18:51:31.835Z,25.00
2018-08-20T18:54:00.382Z,24.90
2018-08-20T18:56:28.743Z,24.90
2018-08-20T18:58:57.271Z,24.70
2018-08-20T19:01:26.377Z,24.80
2018-08-20T19:03:55.311Z,24.70
2018-08-20T19:06:25.632Z,24.70
2018-08-20T19:08:59.946Z,24.70
2018-08-20T19:11:29.903Z,24.60
2018-08-20T19:14:05.954Z,24.60
2018-08-20T19:16:39.070Z,24.50
2018-08-20T19:19:08.422Z,24.50
2018-08-20T19:21:38.649Z,24.50
2018-08-20T19:24:08.721Z,24.50
2018-08-20T19:26:37.459Z,24.50
2018-08-20T19:29:36.898Z,24.50
2018-08-20T19:32:05.794Z,24.40
2018-08-20T19:34:34.584Z,24.40
2018-08-20T19:37:03.218Z,24.40
2018-08-20T19:39:32.123Z,24.40
2018-08-20T19:42:01.254Z,24.30
2018-08-20T19:44:29.985Z,24.30
2018-08-20T19:46:58.199Z,24.20
2018-08-20T19:49:26.716Z,24.20
2018-08-20T19:51:54.885Z,24.20
2018-08-20T19:54:23.422Z,24.20
2018-08-20T19:56:51.620Z,24.10
2018-08-20T19:59:26.545Z,24.10
2018-08-20T20:01:55.257Z,24.10
2018-08-20T20:04:23.835Z,24.10
2018-08-20T20:07:00.658Z,24.00
2018-08-20T20:09:28.855Z,24.10
2018-08-20T20:11:58.002Z,24.00
2018-08-20T20:14:33.436Z,24.00
2018-08-20T20:17:01.966Z,24.00
2018-08-20T20:19:30.525Z,24.00
2018-08-20T20:21:59.155Z,24.10
2018-08-20T20:24:27.692Z,24.10
2018-08-20T20:26:57.129Z,24.10
2018-08-20T20:29:25.324Z,24.10
2018-08-20T20:31:54.554Z,24.10
2018-08-20T20:34:23.061Z,24.10
2018-08-20T20:36:51.527Z,24.10
2018-08-20T20:39:21.061Z,24.10
2018-08-20T20:41:50.501Z,24.10
2018-08-20T20:44:19.354Z,24.00
2018-08-20T20:46:49.073Z,24.00
2018-08-20T20:49:17.264Z,24.00
2018-08-20T20:51:46.066Z,24.00
2018-08-20T20:57:08.314Z,24.00
2018-08-20T20:59:37.639Z,24.00
2018-08-20T21:02:07.050Z,23.90
2018-08-20T21:04:36.305Z,24.00
2018-08-20T21:07:05.190Z,23.90
2018-08-20T21:09:38.793Z,23.90
2018-08-20T21:12:07.015Z,23.90
2018-08-20T21:14:35.530Z,23.90
2018-08-20T21:17:09.207Z,23.90
2018-08-20T21:19:38.299Z,23.90
2018-08-20T21:22:09.197Z,23.90
2018-08-20T21:24:38.865Z,23.90
2018-08-20T21:27:16.781Z,23.90
2018-08-20T21:29:45.295Z,23.90
2018-08-20T21:32:13.710Z,23.90
2018-08-20T21:34:42.749Z,23.90
2018-08-20T21:37:11.825Z,23.80
2018-08-20T21:39:41.313Z,23.80
2018-08-20T21:42:10.689Z,23.70
2018-08-20T21:44:39.286Z,23.80
2018-08-20T21:47:29.572Z,23.80
2018-08-20T21:49:58.417Z,23.90
2018-08-20T21:52:27.249Z,23.80
2018-08-20T21:54:56.028Z,23.80
2018-08-20T21:57:25.382Z,23.80
2018-08-20T22:00:04.915Z,23.70
2018-08-20T22:02:33.499Z,23.70
2018-08-20T22:05:02.891Z,23.80
2018-08-20T22:07:31.437Z,23.70
2018-08-20T22:09:59.992Z,23.80
2018-08-20T22:12:28.656Z,23.70
2018-08-20T22:14:57.170Z,23.70
2018-08-20T22:17:30.751Z,23.60
2018-08-20T22:20:04.125Z,23.60
2018-08-20T22:22:33.295Z,23.50
2018-08-20T22:25:02.442Z,23.50
2018-08-20T22:27:38.341Z,23.50
2018-08-20T22:30:07.078Z,23.50
2018-08-20T22:32:36.231Z,23.40
2018-08-20T22:35:10.925Z,23.40
2018-08-20T22:37:40.350Z,23.40
2018-08-20T22:40:08.999Z,23.40
2018-08-20T22:42:45.765Z,23.40
2018-08-20T22:45:16.126Z,23.40
2018-08-20T22:47:46.754Z,23.40
2018-08-20T22:50:15.229Z,23.50
2018-08-20T22:54:09.565Z,23.50
2018-08-20T22:56:38.402Z,23.50
2018-08-20T22:59:09.048Z,23.40
2018-08-20T23:01:37.529Z,23.50
2018-08-20T23:04:06.317Z,23.50
2018-08-20T23:06:34.528Z,23.50
2018-08-20T23:09:20.007Z,23.50
2018-08-20T23:11:48.461Z,23.40
2018-08-20T23:14:17.545Z,23.40
2018-08-20T23:16:48.828Z,23.40
2018-08-20T23:19:17.671Z,23.40
2018-08-20T23:21:46.676Z,23.40
2018-08-20T23:24:15.881Z,23.40
2018-08-20T23:26:44.402Z,23.40
2018-08-20T23:29:13.416Z,23.40
2018-08-20T23:31:41.980Z,23.40
2018-08-20T23:34:15.117Z,23.30
2018-08-20T23:36:44.071Z,23.30
2018-08-20T23:39:15.164Z,23.30
2018-08-20T23:41:43.353Z,23.20
2018-08-20T23:44:14.900Z,23.30
2018-08-20T23:46:45.521Z,23.30
2018-08-20T23:49:14.648Z,23.20
2018-08-20T23:51:43.405Z,23.20
2018-08-20T23:54:12.234Z,23.20
2018-08-20T23:56:40.744Z,23.20
2018-08-20T23:59:09.688Z,23.20
